Latest Weather Observations for Walpole North

IDW60801

Issued at 1:03 pm WST Friday 20 October 2017 (issued every 30 minutes, with the page automatically refreshed every 10 minutes)

About weather observations | Map of weather stations | Latest weather observations for WA | Other Formats
Station Details ID: 009998 Name: NORTH WALPOLE Lat: -34.95 Lon: 116.72 Height: 73.0 m
Data from the previous 72 hours. | See also: Recent months at Walpole North
Date/Time
WST
Temp
°C
App
Temp
°C
Dew
Point
°C
Rel
Hum
%
Delta-T
°C
Wind Press
QNH
hPa
Press
MSL
hPa
Rain since
9am
mm
Dir  Spd
km/h
Gust
km/h
Spd
kts
Gust
kts
20/01:00pm 23.2 20.7 10.9 46 6.8 ENE 15 24 8 13 1026.0 1026.0 0.0
20/12:30pm 23.2 21.4 13.4 54 5.7 E 15 28 8 15 1026.4 1026.4 0.0
20/12:00pm 22.4 20.3 12.4 53 5.7 ENE 15 22 8 12 1026.7 1026.7 0.0
20/11:30am 21.8 19.9 12.9 57 5.1 ENE 15 24 8 13 1027.1 1027.1 0.0
20/11:00am 20.8 18.0 11.4 55 5.2 ENE 17 28 9 15 1027.6 1027.6 0.0
20/10:30am 19.7 17.3 11.5 59 4.5 ENE 15 28 8 15 1027.9 1027.9 0.0
20/10:00am 19.2 17.4 12.2 64 3.9 E 13 20 7 11 1028.1 1028.1 0.0
20/09:30am 18.2 16.2 11.5 65 3.7 ENE 13 26 7 14 1028.4 1028.4 0.0
20/09:00am 16.9 14.8 11.2 69 3.1 ENE 13 24 7 13 1028.7 1028.7 0.0
20/08:30am 15.7 12.3 10.7 72 2.7 E 19 32 10 17 1028.8 1028.8 0.0
20/08:00am 14.6 11.5 10.2 75 2.3 E 17 28 9 15 1028.9 1028.9 0.0
20/07:30am 14.0 11.3 10.4 79 1.9 ENE 15 28 8 15 1029.0 1029.0 0.0
20/07:00am 13.1 10.4 10.3 83 1.4 ENE 15 26 8 14 1029.1 1029.1 0.0
20/06:30am 11.8 9.3 9.7 87 1.1 E 13 19 7 10 1029.1 1029.1 0.0
20/06:00am 10.7 8.4 9.0 89 0.8 E 11 20 6 11 1029.2 1029.2 0.0
20/05:30am 10.2 7.4 8.5 89 0.8 ENE 13 20 7 11 1028.7 1028.7 0.0
20/05:00am 10.1 7.3 8.4 89 0.8 ENE 13 19 7 10 1028.7 1028.7 0.0
20/04:30am 10.2 7.7 8.3 88 0.9 ENE 11 17 6 9 1028.6 1028.6 0.0
20/04:00am 10.2 7.7 8.3 88 0.9 E 11 20 6 11 1028.6 1028.6 0.0
20/03:30am 10.0 7.1 8.1 88 0.9 ENE 13 24 7 13 1028.5 1028.5 0.0
20/03:00am 9.7 7.4 7.6 87 1.0 ENE 9 17 5 9 1028.9 1028.9 0.0
20/02:30am 9.9 8.2 7.5 85 1.1 ENE 6 13 3 7 1028.8 1028.8 0.0
20/02:00am 10.1 7.4 7.5 84 1.2 ENE 11 17 6 9 1028.6 1028.6 0.0
20/01:30am 10.2 7.1 7.4 83 1.3 ENE 13 19 7 10 1028.5 1028.5 0.0
20/01:00am 10.3 7.3 7.5 83 1.3 ENE 13 17 7 9 1028.7 1028.7 0.0
20/12:30am 10.3 7.6 7.4 82 1.4 ENE 11 19 6 10 1028.9 1028.9 0.0
20/12:00am 10.2 7.8 7.1 81 1.5 ENE 9 13 5 7 1029.1 1029.1 0.0
 
Date/Time
WST
Temp
°C
App
Temp
°C
Dew
Point
°C
Rel
Hum
%
Delta-T
°C
Wind Press
QNH
hPa
Press
MSL
hPa
Rain since
9am
mm
Dir  Spd
km/h
Gust
km/h
Spd
kts
Gust
kts
19/11:30pm 10.9 8.2 7.4 79 1.7 E 11 19 6 10 1029.2 1029.2 0.0
19/11:00pm 10.9 7.9 7.6 80 1.6 ENE 13 17 7 9 1029.3 1029.3 0.0
19/10:30pm 11.0 8.7 7.3 78 1.8 ENE 9 17 5 9 1029.5 1029.5 0.0
19/10:00pm 11.7 8.7 7.8 77 1.9 E 13 19 7 10 1029.3 1029.3 0.0
19/09:30pm 12.1 9.2 8.2 77 1.9 ENE 13 20 7 11 1029.4 1029.4 0.0
19/09:00pm 12.5 8.9 8.4 76 2.0 E 17 26 9 14 1029.3 1029.3 0.0
19/08:30pm 12.5 8.9 8.4 76 2.0 E 17 22 9 12 1029.5 1029.5 0.0
19/08:00pm 12.7 9.5 8.6 76 2.0 E 15 20 8 11 1029.2 1029.2 0.0
19/07:30pm 12.5 9.7 8.4 76 2.0 ESE 13 19 7 10 1029.1 1029.1 0.0
19/07:00pm 13.1 9.9 8.6 74 2.2 ESE 15 22 8 12 1028.8 1028.8 0.0
19/06:30pm 13.4 10.2 8.3 71 2.5 ESE 15 22 8 12 1028.6 1028.6 0.0
19/06:00pm 14.0 10.4 8.2 68 2.9 ESE 17 28 9 15 1028.4 1028.4 0.0
19/05:30pm 14.3 9.3 8.0 66 3.1 SE 24 32 13 17 1028.0 1028.0 0.0
19/05:00pm 15.0 10.9 8.5 65 3.3 SE 20 32 11 17 1027.9 1027.9 0.0
19/04:30pm 15.2 10.8 8.9 66 3.2 SE 22 32 12 17 1027.6 1027.6 0.0
19/04:00pm 15.4 11.7 9.3 67 3.1 SSE 19 28 10 15 1027.3 1027.3 0.0
19/03:30pm 16.5 14.0 9.7 64 3.6 SSE 13 28 7 15 1027.1 1027.1 0.0
19/03:00pm 16.8 13.9 9.7 63 3.7 SSE 15 28 8 15 1027.0 1027.0 0.0
19/02:30pm 17.0 14.5 9.7 62 3.8 S 13 22 7 12 1027.1 1027.1 0.0
19/02:00pm 17.0 13.8 10.1 64 3.6 S 17 30 9 16 1027.2 1027.2 0.0
19/01:30pm 16.8 13.9 9.5 62 3.8 S 15 26 8 14 1027.4 1027.4 0.0
19/01:00pm 16.8 14.2 9.2 61 3.9 S 13 20 7 11 1027.7 1027.7 0.0
19/12:30pm 16.9 15.2 9.8 63 3.7 S 9 17 5 9 1027.7 1027.7 0.0
19/12:00pm 16.0 14.3 8.2 60 3.9 SSE 7 17 4 9 1027.9 1027.9 0.0
19/11:30am 15.8 14.7 8.5 62 3.7 S 4 11 2 6 1028.3 1028.3 0.0
19/11:00am 15.7 14.4 9.1 65 3.4 S 6 13 3 7 1028.7 1028.7 0.0
19/10:30am 15.3 15.0 8.8 65 3.3 CALM 0 9 0 5 1028.9 1028.9 0.0
19/10:00am 15.7 15.2 9.4 66 3.2 S 2 7 1 4 1029.0 1029.0 0.0
19/09:30am 15.6 15.6 9.7 68 3.1 CALM 0 7 0 4 1028.9 1028.9 0.0
19/09:00am 14.1 14.2 10.3 78 2.0 CALM 0 0 0 0 1028.9 1028.9 0.0
19/08:30am 13.0 13.4 11.1 88 1.0 CALM 0 0 0 0 1028.6 1028.6 0.0
19/08:00am 12.7 13.1 11.3 91 0.7 CALM 0 0 0 0 1028.2 1028.2 0.0
19/07:30am 11.5 11.6 10.2 92 0.7 CALM 0 0 0 0 1027.9 1027.9 0.0
19/07:00am 10.8 10.7 9.6 92 0.6 CALM 0 0 0 0 1027.5 1027.5 0.0
19/06:30am 10.6 10.4 9.2 91 0.7 CALM 0 0 0 0 1027.1 1027.1 0.0
19/06:00am 10.4 10.2 9.0 91 0.7 CALM 0 0 0 0 1026.7 1026.7 0.0
19/05:30am 10.1 9.7 8.4 89 0.8 CALM 0 0 0 0 1026.3 1026.3 0.0
19/05:00am 10.4 10.0 8.2 86 1.1 CALM 0 0 0 0 1025.9 1025.9 0.0
19/04:30am 10.7 10.2 7.9 83 1.4 CALM 0 0 0 0 1025.6 1025.6 0.0
19/04:00am 10.7 10.2 7.8 82 1.4 CALM 0 0 0 0 1025.4 1025.3 0.0
19/03:30am 10.6 10.1 7.7 82 1.4 CALM 0 0 0 0 1025.3 1025.2 0.0
19/03:00am 10.6 9.3 7.7 82 1.4 NW 4 9 2 5 1025.2 1025.1 0.0
19/02:30am 10.6 9.3 7.8 83 1.4 NW 4 9 2 5 1025.1 1025.0 0.0
19/02:00am 10.5 9.6 7.6 82 1.4 NW 2 7 1 4 1024.9 1024.8 0.0
19/01:30am 10.3 9.7 7.5 83 1.3 CALM 0 6 0 3 1024.8 1024.7 0.0
19/01:00am 10.4 9.8 7.3 81 1.5 CALM 0 0 0 0 1024.8 1024.7 0.0
19/12:30am 10.6 9.5 7.1 79 1.7 WNW 2 9 1 5 1024.8 1024.7 0.0
19/12:00am 10.9 9.1 7.0 77 1.8 WNW 6 7 3 4 1024.7 1024.6 0.0
 
Date/Time
WST
Temp
°C
App
Temp
°C
Dew
Point
°C
Rel
Hum
%
Delta-T
°C
Wind Press
QNH
hPa
Press
MSL
hPa
Rain since
9am
mm
Dir  Spd
km/h
Gust
km/h
Spd
kts
Gust
kts
18/11:30pm 10.9 9.1 7.2 78 1.8 NW 6 11 3 6 1024.7 1024.6 0.0
18/11:00pm 10.2 7.7 6.7 79 1.6 NW 9 11 5 6 1024.6 1024.5 0.0
18/10:30pm 10.3 7.9 6.8 79 1.7 WNW 9 11 5 6 1024.6 1024.5 0.0
18/10:00pm 10.8 8.4 7.1 78 1.8 NW 9 15 5 8 1024.5 1024.4 0.0
18/09:30pm 9.9 7.3 6.1 77 1.8 NW 9 11 5 6 1024.3 1024.2 0.0
18/09:00pm 10.7 8.6 6.6 76 1.9 NW 7 11 4 6 1024.3 1024.2 0.0
18/08:30pm 10.8 8.3 6.7 76 1.9 NW 9 13 5 7 1024.2 1024.1 0.0
18/08:00pm 10.4 8.2 6.2 75 1.9 WNW 7 11 4 6 1023.8 1023.7 0.0
18/07:30pm 10.9 8.3 6.1 72 2.2 WNW 9 13 5 7 1023.3 1023.2 0.0
18/07:00pm 11.7 9.2 6.4 70 2.5 W 9 15 5 8 1022.8 1022.7 0.0
18/06:30pm 11.7 9.0 5.8 67 2.8 W 9 13 5 7 1022.4 1022.3 0.0
18/06:00pm 12.6 9.1 5.5 62 3.3 W 13 22 7 12 1022.2 1022.1 0.0
18/05:30pm 12.6 8.6 4.8 59 3.6 W 15 24 8 13 1021.7 1021.6 0.0
18/05:00pm 14.0 9.2 4.6 53 4.3 W 19 30 10 16 1021.2 1021.1 0.0
18/04:30pm 14.5 10.1 6.6 59 3.8 WSW 19 35 10 19 1020.7 1020.6 0.0
18/04:00pm 14.5 10.0 6.1 57 4.0 WSW 19 33 10 18 1020.2 1020.1 0.0
18/03:30pm 15.1 10.3 7.4 60 3.8 WSW 22 39 12 21 1019.7 1019.7 0.0
18/03:00pm 14.5 10.1 7.5 63 3.5 W 20 37 11 20 1019.4 1019.4 0.0
18/02:30pm 14.0 8.5 6.1 59 3.8 WSW 24 41 13 22 1019.1 1019.1 0.0
18/02:00pm 13.3 8.8 6.9 65 3.1 WSW 20 39 11 21 1019.0 1019.0 0.0
18/01:30pm 13.4 8.4 8.0 70 2.7 WSW 24 41 13 22 1019.0 1019.0 0.0
18/01:00pm 14.8 11.0 9.0 68 3.0 W 19 35 10 19 1018.5 1018.5 0.0
18/12:43pm 13.7 7.5 6.3 61 3.6 WSW 28 48 15 26 1018.3 1018.3 0.0
18/12:30pm 14.6 8.7 5.9 56 4.2 W 26 44 14 24 1018.1 1018.1 0.0
18/12:02pm 14.3 8.0 5.9 57 4.0 WSW 28 46 15 25 1018.1 1018.1 0.0
18/12:00pm 14.5 8.7 6.1 57 4.0 W 26 46 14 25 1017.9 1017.9 0.0
18/11:30am 13.8 8.5 6.9 63 3.4 W 24 43 13 23 1017.7 1017.7 0.0
18/11:00am 13.8 7.2 5.9 59 3.8 W 30 48 16 26 1017.7 1017.7 0.0
18/10:31am 14.2 8.4 7.9 66 3.1 WSW 28 54 15 29 1017.3 1017.3 0.0
18/10:30am 13.9 8.4 7.4 65 3.2 WSW 26 54 14 29 1017.4 1017.4 0.0
18/10:00am 12.3 5.3 6.1 66 2.9 W 32 52 17 28 1017.1 1017.1 0.0
18/09:56am 12.2 6.0 6.3 67 2.8 W 28 52 15 28 1017.2 1017.2 0.0
18/09:30am 11.8 6.2 7.3 74 2.2 WSW 26 44 14 24 1016.9 1016.9 0.0
18/09:18am 12.1 6.0 6.8 70 2.5 WSW 28 50 15 27 1016.8 1016.8 0.0
18/09:00am 12.9 7.1 6.3 64 3.1 WSW 26 41 14 22 1016.2 1016.2 12.0
18/08:30am 12.7 9.2 8.6 76 2.1 W 17 28 9 15 1015.5 1015.5 12.0
18/08:00am 13.0 8.1 7.0 67 2.9 W 22 39 12 21 1014.9 1014.9 11.6
18/07:30am 11.5 6.7 7.2 75 2.1 W 22 48 12 26 1014.7 1014.7 11.6
18/07:00am 10.2 5.9 7.1 81 1.5 WNW 19 28 10 15 1014.1 1014.1 11.6
18/06:30am 9.1 5.2 6.9 86 1.0 NW 17 24 9 13 1013.4 1013.3 11.6
18/06:00am 8.8 5.2 6.8 87 0.9 WNW 15 20 8 11 1013.2 1013.1 11.4
18/05:30am 8.7 2.5 6.3 85 1.1 WNW 28 48 15 26 1012.6 1012.5 10.8
18/05:00am 8.9 3.5 6.3 84 1.2 NW 24 33 13 18 1011.7 1011.6 10.4
18/04:30am 8.8 3.7 6.1 83 1.2 WNW 22 32 12 17 1011.5 1011.4 10.4
18/04:00am 8.8 4.3 6.3 84 1.2 WNW 19 26 10 14 1011.2 1011.1 10.4
18/03:30am 8.8 5.1 6.4 85 1.1 WNW 15 26 8 14 1010.7 1010.6 10.4
18/03:00am 9.0 4.7 6.8 86 1.0 WNW 19 30 10 16 1010.4 1010.3 10.4
18/02:30am 8.6 4.9 6.4 86 1.0 WNW 15 20 8 11 1010.0 1009.9 10.4
18/02:00am 8.6 3.2 6.4 86 1.0 WNW 24 41 13 22 1009.5 1009.4 10.4
18/01:45am 8.9 3.5 6.3 84 1.2 WNW 24 57 13 31 1009.5 1009.4 9.2
18/01:30am 9.2 3.8 6.5 83 1.3 NW 24 32 13 17 1009.1 1009.0 8.4
18/01:00am 9.8 4.3 5.8 76 1.8 WNW 24 32 13 17 1008.7 1008.6 7.8
18/12:36am 9.9 3.8 6.4 79 1.6 NW 28 46 15 25 1008.5 1008.4 7.8
18/12:30am 10.1 5.1 6.6 79 1.6 NW 22 35 12 19 1008.5 1008.4 7.8
18/12:00am 9.9 4.5 6.3 78 1.7 NW 24 33 13 18 1008.5 1008.4 7.8
 
Date/Time
WST
Temp
°C
App
Temp
°C
Dew
Point
°C
Rel
Hum
%
Delta-T
°C
Wind Press
QNH
hPa
Press
MSL
hPa
Rain since
9am
mm
Dir  Spd
km/h
Gust
km/h
Spd
kts
Gust
kts
17/11:30pm 10.0 5.1 7.1 82 1.4 WNW 22 32 12 17 1008.5 1008.4 7.8
17/11:00pm 10.0 6.2 7.6 85 1.2 WNW 17 37 9 20 1008.1 1008.0 7.8
17/10:30pm 10.6 6.5 8.5 87 1.0 W 20 35 11 19 1007.9 1007.8 7.8
17/10:00pm 10.4 6.6 9.2 92 0.6 WNW 19 26 10 14 1007.5 1007.4 7.6
17/09:30pm 10.4 6.7 9.6 95 0.4 WNW 19 32 10 17 1007.4 1007.3 7.6
17/09:00pm 10.7 7.6 10.4 98 0.2 WNW 17 32 9 17 1007.0 1006.9 7.6
17/08:30pm 10.7 8.0 10.5 99 0.1 W 15 24 8 13 1006.8 1006.7 7.6
17/08:00pm 11.2 6.9 10.9 98 0.2 W 24 43 13 23 1006.2 1006.1 7.2
17/07:30pm 11.9 8.1 11.3 96 0.3 WNW 22 41 12 22 1005.3 1005.3 5.2
17/07:11pm 12.2 7.3 11.4 95 0.4 NW 28 46 15 25 1004.3 1004.3 3.8
17/07:00pm 12.2 8.4 11.3 94 0.5 NW 22 32 12 17 1004.1 1004.1 3.8
17/06:30pm 12.3 6.8 10.7 90 0.8 NW 30 44 16 24 1003.7 1003.7 3.4
17/06:02pm 12.6 6.6 10.8 89 0.9 NW 33 52 18 28 1003.5 1003.5 2.8
17/06:00pm 12.6 6.2 10.7 88 1.0 NW 35 52 19 28 1003.3 1003.3 2.8
17/05:30pm 14.6 9.4 11.7 83 1.6 NW 30 59 16 32 1002.4 1002.4 1.4
17/05:00pm 15.2 10.4 11.6 79 2.0 NW 28 43 15 23 1002.1 1002.0 1.2
17/04:50pm 15.4 10.7 12.0 80 1.9 NW 28 48 15 26 1002.1 1002.0 1.2
17/04:30pm 15.5 10.6 12.6 83 1.6 NW 30 44 16 24 1002.4 1002.4 1.2
17/04:00pm 14.9 11.5 13.6 92 0.7 NW 24 33 13 18 1002.4 1002.4 1.2
17/03:30pm 14.4 11.0 12.6 89 1.0 WNW 22 37 12 20 1002.7 1002.7 1.0
17/03:00pm 14.9 11.3 11.7 81 1.7 NW 22 33 12 18 1002.5 1002.5 0.6
17/02:30pm 16.3 10.5 10.8 70 2.9 NW 32 50 17 27 1002.2 1002.1 0.2
17/02:00pm 17.4 14.0 12.5 73 2.7 NW 22 41 12 22 1002.5 1002.5 0.0
17/01:30pm 15.5 10.7 11.5 77 2.2 NW 28 44 15 24 1003.2 1003.2 0.0

Other Formats:

Comma delimited format used in spreadsheet applications
http://www.bom.gov.au/fwo/IDW60801/IDW60801.95647.axf

JavaScript Object Notation format (JSON) in row-major order
http://www.bom.gov.au/fwo/IDW60801/IDW60801.95647.json